createdAt,value
2023-01-23T00:01:20.725Z,10.80
2023-01-23T00:03:47.524Z,11.60
2023-01-23T00:06:16.029Z,10.40
2023-01-23T00:08:43.861Z,11.57
2023-01-23T00:11:16.652Z,10.33
2023-01-23T00:13:43.282Z,12.10
2023-01-23T00:16:14.438Z,11.17
2023-01-23T00:18:41.026Z,10.27
2023-01-23T00:21:10.003Z,11.20
2023-01-23T00:23:37.108Z,13.10
2023-01-23T00:26:04.528Z,11.37
2023-01-23T00:28:31.595Z,10.40
2023-01-23T00:31:10.011Z,10.57
2023-01-23T00:33:36.741Z,10.93
2023-01-23T00:36:03.625Z,10.87
2023-01-23T00:38:31.698Z,8.50
2023-01-23T00:40:58.313Z,9.50
2023-01-23T00:43:25.542Z,9.93
2023-01-23T00:45:52.120Z,8.20
2023-01-23T00:48:19.004Z,9.90
2023-01-23T00:50:45.823Z,10.07
2023-01-23T00:53:13.170Z,8.37
2023-01-23T00:55:40.928Z,9.97
2023-01-23T00:58:08.601Z,9.83
2023-01-23T01:00:39.691Z,10.70
2023-01-23T01:03:06.920Z,9.87
2023-01-23T01:05:35.113Z,10.47
2023-01-23T01:08:03.581Z,11.30
2023-01-23T01:10:32.854Z,10.80
2023-01-23T01:13:01.486Z,10.90
2023-01-23T01:15:29.500Z,10.10
2023-01-23T01:17:57.227Z,10.27
2023-01-23T01:20:26.069Z,10.07
2023-01-23T01:22:58.150Z,12.37
2023-01-23T01:25:25.174Z,11.30
2023-01-23T01:27:54.036Z,10.37
2023-01-23T01:30:21.081Z,11.77
2023-01-23T01:32:47.899Z,11.70
2023-01-23T01:35:14.572Z,11.53
2023-01-23T01:37:42.218Z,10.63
2023-01-23T01:40:14.547Z,12.67
2023-01-23T01:42:47.171Z,12.50
2023-01-23T01:45:51.386Z,9.93
2023-01-23T01:48:20.468Z,10.33
2023-01-23T01:50:47.730Z,9.70
2023-01-23T01:53:14.638Z,12.57
2023-01-23T01:55:41.323Z,11.23
2023-01-23T01:58:09.104Z,10.30
2023-01-23T02:00:36.207Z,10.60
2023-01-23T02:03:03.585Z,11.20
2023-01-23T02:05:36.041Z,10.87
2023-01-23T02:08:22.551Z,10.57
2023-01-23T02:10:49.672Z,10.43
2023-01-23T02:13:37.004Z,10.60
2023-01-23T02:16:07.089Z,11.37
2023-01-23T02:18:35.771Z,9.73
2023-01-23T02:21:07.245Z,10.27
2023-01-23T02:24:01.748Z,10.70
2023-01-23T02:26:32.934Z,10.83
2023-01-23T02:28:59.839Z,10.17
2023-01-23T02:31:31.768Z,12.00
2023-01-23T02:34:00.213Z,10.93
2023-01-23T02:36:30.795Z,10.93
2023-01-23T02:39:15.294Z,11.27
2023-01-23T02:41:47.352Z,10.17
2023-01-23T02:44:27.406Z,11.23
2023-01-23T02:47:07.952Z,10.87
2023-01-23T02:49:34.775Z,12.40
2023-01-23T02:52:04.256Z,9.73
2023-01-23T02:54:31.689Z,10.93
2023-01-23T02:56:58.438Z,10.20
2023-01-23T02:59:43.949Z,11.23
2023-01-23T03:02:10.864Z,11.43
2023-01-23T03:04:37.472Z,12.67
2023-01-23T03:07:04.059Z,13.13
2023-01-23T03:09:30.649Z,11.73
2023-01-23T03:11:57.369Z,10.53
2023-01-23T03:14:24.678Z,11.53
2023-01-23T03:16:53.989Z,11.97
2023-01-23T03:19:24.966Z,10.07
2023-01-23T03:21:52.270Z,13.60
2023-01-23T03:24:19.994Z,11.23
2023-01-23T03:26:48.429Z,9.93
2023-01-23T03:29:37.844Z,10.17
2023-01-23T03:32:05.551Z,10.13
2023-01-23T03:34:32.857Z,10.33
2023-01-23T03:37:01.303Z,9.73
2023-01-23T03:39:48.310Z,10.67
2023-01-23T03:42:17.028Z,12.40
2023-01-23T03:44:44.041Z,10.70
2023-01-23T03:47:10.853Z,11.93
2023-01-23T03:49:39.584Z,12.00
2023-01-23T03:52:06.481Z,11.23
2023-01-23T03:54:33.297Z,9.20
2023-01-23T03:57:01.067Z,10.67
2023-01-23T03:59:47.617Z,9.27
2023-01-23T04:02:16.539Z,10.30
2023-01-23T04:04:43.237Z,11.50
2023-01-23T04:07:10.110Z,10.87
2023-01-23T04:09:38.936Z,11.00
2023-01-23T04:12:06.624Z,12.83
2023-01-23T04:14:37.651Z,12.83
2023-01-23T04:17:05.359Z,10.80
2023-01-23T04:19:32.332Z,11.27
2023-01-23T04:21:59.111Z,11.03
2023-01-23T04:24:25.964Z,11.10
2023-01-23T04:26:53.633Z,13.80
2023-01-23T04:29:20.420Z,12.67
2023-01-23T04:31:47.624Z,13.07
2023-01-23T04:34:14.340Z,11.33
2023-01-23T04:36:42.283Z,10.47
2023-01-23T04:39:09.062Z,13.33
2023-01-23T04:41:37.312Z,9.60
2023-01-23T04:44:20.328Z,13.77
2023-01-23T04:47:05.337Z,11.70
2023-01-23T04:49:32.022Z,12.00
2023-01-23T04:51:58.659Z,11.63
2023-01-23T04:54:25.845Z,11.43
2023-01-23T04:56:53.104Z,10.43
2023-01-23T04:59:21.649Z,11.33
2023-01-23T05:01:49.048Z,11.97
2023-01-23T05:04:16.927Z,11.23
2023-01-23T05:06:45.094Z,11.67
2023-01-23T05:09:13.549Z,9.57
2023-01-23T05:11:46.669Z,12.27
2023-01-23T05:14:13.660Z,11.80
2023-01-23T05:16:41.585Z,11.10
2023-01-23T05:19:18.874Z,8.57
2023-01-23T05:21:45.983Z,8.63
2023-01-23T05:24:16.678Z,9.63
2023-01-23T05:26:44.497Z,9.30
2023-01-23T05:29:11.095Z,9.80
2023-01-23T05:31:46.436Z,11.40
2023-01-23T05:34:31.830Z,9.57
2023-01-23T05:37:02.542Z,9.33
2023-01-23T05:39:32.599Z,9.13
2023-01-23T05:41:59.663Z,9.63
2023-01-23T05:44:44.999Z,12.07
2023-01-23T05:47:21.436Z,11.67
2023-01-23T05:49:49.061Z,9.90
2023-01-23T05:52:15.794Z,11.93
2023-01-23T05:54:43.381Z,9.93
2023-01-23T05:57:12.092Z,10.80
2023-01-23T05:59:58.559Z,11.17
2023-01-23T06:02:53.206Z,9.03
2023-01-23T06:05:23.460Z,10.27
2023-01-23T06:08:01.027Z,10.33
2023-01-23T06:10:27.643Z,8.83
2023-01-23T06:12:54.374Z,9.63
2023-01-23T06:15:21.001Z,13.83
2023-01-23T06:17:47.803Z,11.90
2023-01-23T06:20:14.487Z,11.27
2023-01-23T06:22:44.183Z,11.67
2023-01-23T06:25:12.850Z,11.70
2023-01-23T06:27:39.808Z,11.37
2023-01-23T06:30:08.871Z,15.33
2023-01-23T06:32:41.272Z,11.60
2023-01-23T06:35:09.622Z,12.23
2023-01-23T06:37:41.508Z,12.00
2023-01-23T06:40:13.929Z,12.70
2023-01-23T06:42:47.001Z,13.37
2023-01-23T06:45:13.711Z,13.43
2023-01-23T06:47:40.319Z,15.07
2023-01-23T06:50:07.562Z,13.57
2023-01-23T06:52:37.160Z,14.87
2023-01-23T06:55:04.236Z,15.57
2023-01-23T06:57:30.899Z,16.67
2023-01-23T06:59:57.933Z,16.23
2023-01-23T07:02:24.577Z,14.00
2023-01-23T07:04:51.565Z,14.20
2023-01-23T07:07:18.717Z,16.00
2023-01-23T07:09:48.195Z,12.97
2023-01-23T07:12:20.848Z,15.80
2023-01-23T07:14:47.464Z,14.17
2023-01-23T07:17:19.296Z,12.97
2023-01-23T07:19:45.910Z,14.67
2023-01-23T07:22:22.857Z,14.50
2023-01-23T07:24:49.415Z,14.93
2023-01-23T07:27:16.646Z,15.03
2023-01-23T07:29:43.220Z,13.33
2023-01-23T07:32:11.198Z,15.30
2023-01-23T07:34:38.545Z,13.43
2023-01-23T07:37:05.185Z,13.37
2023-01-23T07:39:32.000Z,13.77
2023-01-23T07:41:58.618Z,14.43
2023-01-23T07:44:28.471Z,12.00
2023-01-23T07:46:55.062Z,14.20
2023-01-23T07:49:21.629Z,13.13
2023-01-23T07:51:48.229Z,11.80
2023-01-23T07:54:14.910Z,14.33
2023-01-23T07:56:41.510Z,12.83
2023-01-23T07:59:08.072Z,11.03
2023-01-23T08:01:34.673Z,11.97
2023-01-23T08:04:01.347Z,10.83
2023-01-23T08:06:27.907Z,11.77
2023-01-23T08:08:54.480Z,12.90
2023-01-23T08:11:21.234Z,10.87
2023-01-23T08:13:51.201Z,11.73
2023-01-23T08:16:18.198Z,11.37
2023-01-23T08:18:44.863Z,8.80
2023-01-23T08:21:11.849Z,14.20
2023-01-23T08:23:39.113Z,11.63
2023-01-23T08:26:08.458Z,12.60
2023-01-23T08:28:36.571Z,13.40
2023-01-23T08:31:19.073Z,9.03
2023-01-23T08:33:45.757Z,10.50
2023-01-23T08:36:13.680Z,9.00
2023-01-23T08:38:40.351Z,9.77
2023-01-23T08:41:09.911Z,9.97
2023-01-23T08:43:36.479Z,8.13
2023-01-23T08:46:03.463Z,10.60
2023-01-23T08:48:30.388Z,9.50
2023-01-23T08:51:03.595Z,11.07
2023-01-23T08:53:31.422Z,9.47
2023-01-23T08:56:07.346Z,10.67
2023-01-23T08:58:34.659Z,9.90
2023-01-23T09:01:01.354Z,10.00
2023-01-23T09:03:28.533Z,9.07
2023-01-23T09:05:55.328Z,10.87
2023-01-23T09:08:21.979Z,9.37
2023-01-23T09:10:48.529Z,8.70
2023-01-23T09:13:15.985Z,9.00
2023-01-23T09:15:42.634Z,8.77
2023-01-23T09:18:09.419Z,11.03
2023-01-23T09:20:38.037Z,10.87
2023-01-23T09:23:04.902Z,11.50
2023-01-23T09:25:31.714Z,8.93
2023-01-23T09:27:58.463Z,9.70
2023-01-23T09:30:25.480Z,9.10
2023-01-23T09:32:53.490Z,9.33
2023-01-23T09:35:20.279Z,10.03
2023-01-23T09:38:01.956Z,8.47
2023-01-23T09:40:33.159Z,10.73
2023-01-23T09:43:13.149Z,9.40
2023-01-23T09:45:43.762Z,8.90
2023-01-23T09:48:19.438Z,9.60
2023-01-23T09:51:25.023Z,11.20
2023-01-23T09:53:56.024Z,10.03
2023-01-23T09:56:35.208Z,10.47
2023-01-23T09:59:01.678Z,10.83
2023-01-23T10:01:31.007Z,13.73
2023-01-23T10:04:02.186Z,13.37
2023-01-23T10:06:58.826Z,10.37
2023-01-23T10:09:47.254Z,10.33
2023-01-23T10:12:31.883Z,11.77
2023-01-23T10:15:19.631Z,11.17
2023-01-23T10:18:04.910Z,14.50
2023-01-23T10:20:51.531Z,10.53
2023-01-23T10:23:44.204Z,11.67
2023-01-23T10:26:17.304Z,11.63
2023-01-23T10:28:45.559Z,10.70
2023-01-23T10:31:17.354Z,10.93
2023-01-23T10:34:00.025Z,14.40
2023-01-23T10:36:47.980Z,11.13
2023-01-23T10:39:26.543Z,12.10
2023-01-23T10:42:01.042Z,14.23
2023-01-23T10:44:28.874Z,12.87
2023-01-23T10:47:00.513Z,13.73
2023-01-23T10:49:30.433Z,13.03
2023-01-23T10:51:57.631Z,10.77
2023-01-23T10:54:33.899Z,12.13
2023-01-23T10:57:03.692Z,11.53
2023-01-23T10:59:35.739Z,12.00
2023-01-23T11:02:14.825Z,10.47
2023-01-23T11:04:44.177Z,9.77
2023-01-23T11:07:20.593Z,10.23
2023-01-23T11:10:01.244Z,9.63
2023-01-23T11:12:30.851Z,10.63
2023-01-23T11:15:36.630Z,9.43
2023-01-23T11:18:32.120Z,11.07
2023-01-23T11:20:59.461Z,12.13
2023-01-23T11:23:26.475Z,7.77
2023-01-23T11:25:55.079Z,10.23
2023-01-23T11:28:33.829Z,10.50
2023-01-23T11:31:15.551Z,10.53
2023-01-23T11:34:04.057Z,8.43
2023-01-23T11:36:52.165Z,9.53
2023-01-23T11:39:37.663Z,10.43
2023-01-23T11:42:04.545Z,9.10
2023-01-23T11:44:45.067Z,9.43
2023-01-23T11:47:18.678Z,8.30
2023-01-23T11:49:51.502Z,8.93
2023-01-23T11:52:33.849Z,10.17
2023-01-23T11:55:27.219Z,8.53
2023-01-23T11:58:18.470Z,10.90
2023-01-23T12:00:50.949Z,7.93
2023-01-23T12:03:24.765Z,8.50
2023-01-23T12:09:17.549Z,10.67
2023-01-23T12:11:58.216Z,9.50
2023-01-23T12:14:30.908Z,9.43
2023-01-23T12:17:04.266Z,10.93
2023-01-23T12:20:00.691Z,10.10
2023-01-23T12:22:59.748Z,10.63
2023-01-23T12:25:41.033Z,11.07
2023-01-23T12:28:19.737Z,11.10
2023-01-23T12:30:49.507Z,10.57
2023-01-23T12:33:42.618Z,8.53
2023-01-23T12:37:08.144Z,9.67
2023-01-23T12:39:55.688Z,9.57
2023-01-23T12:42:28.984Z,8.40
2023-01-23T12:45:01.584Z,8.80
2023-01-23T12:47:39.103Z,10.53
2023-01-23T12:50:18.475Z,9.80
2023-01-23T12:52:51.251Z,9.73
2023-01-23T12:55:29.948Z,10.80
2023-01-23T12:58:07.235Z,8.27
2023-01-23T13:01:00.325Z,10.60
2023-01-23T13:03:46.053Z,8.53
2023-01-23T13:06:25.063Z,8.87
2023-01-23T13:09:05.378Z,10.23
2023-01-23T13:11:44.842Z,9.57
2023-01-23T13:14:25.551Z,8.73
2023-01-23T13:17:00.734Z,9.13
2023-01-23T13:19:48.593Z,9.03
2023-01-23T13:22:29.168Z,8.23
2023-01-23T13:25:17.659Z,8.73
2023-01-23T13:27:55.914Z,8.63
2023-01-23T13:30:26.212Z,9.33
2023-01-23T13:32:55.671Z,9.20
2023-01-23T13:35:43.380Z,9.00
2023-01-23T13:38:22.261Z,8.07
2023-01-23T13:41:18.275Z,9.37
2023-01-23T13:43:51.122Z,10.83
2023-01-23T14:24:48.896Z,11.20
2023-01-23T14:27:30.611Z,11.70
2023-01-23T14:30:02.654Z,13.13
2023-01-23T14:32:32.242Z,11.63
2023-01-23T14:34:58.908Z,13.20
2023-01-23T14:37:27.443Z,10.97
2023-01-23T14:39:59.827Z,11.67
2023-01-23T14:42:29.336Z,11.57
2023-01-23T14:44:58.566Z,12.20
2023-01-23T14:47:31.072Z,11.10
2023-01-23T14:50:02.490Z,10.47
2023-01-23T14:52:31.348Z,10.13
2023-01-23T14:55:01.187Z,10.70
2023-01-23T14:57:35.217Z,10.47
2023-01-23T15:00:03.471Z,9.70
2023-01-23T15:02:33.514Z,9.67
2023-01-23T15:05:15.530Z,10.70
2023-01-23T15:07:58.128Z,9.33
2023-01-23T15:10:31.135Z,10.43
2023-01-23T15:13:09.975Z,11.13
2023-01-23T15:15:37.288Z,9.53
2023-01-23T15:18:19.717Z,10.97
2023-01-23T15:21:13.058Z,10.83
2023-01-23T15:23:41.135Z,10.43
2023-01-23T15:26:18.804Z,10.10
2023-01-23T15:28:51.550Z,9.90
2023-01-23T15:31:28.438Z,9.77
2023-01-23T15:33:56.543Z,11.77
2023-01-23T15:36:30.986Z,9.03
2023-01-23T15:38:59.482Z,11.10
2023-01-23T15:41:49.001Z,9.30
2023-01-23T15:44:21.655Z,10.13
2023-01-23T15:46:48.989Z,10.03
2023-01-23T15:49:24.918Z,10.00
2023-01-23T15:51:55.122Z,12.17
2023-01-23T15:54:36.798Z,11.03
2023-01-23T15:57:08.923Z,10.83
2023-01-23T15:59:36.171Z,11.50
2023-01-23T16:02:03.362Z,12.50
2023-01-23T16:04:29.898Z,14.27
2023-01-23T16:06:59.672Z,11.23
2023-01-23T16:09:32.872Z,12.67
2023-01-23T16:12:00.108Z,10.73
2023-01-23T16:14:27.000Z,11.83
2023-01-23T16:16:54.393Z,12.50
2023-01-23T16:19:21.416Z,12.00
2023-01-23T16:22:03.207Z,12.57
2023-01-23T16:24:36.880Z,12.43
2023-01-23T16:27:04.380Z,16.00
2023-01-23T16:29:34.710Z,17.30
2023-01-23T16:32:02.931Z,17.10
2023-01-23T16:34:30.174Z,19.27
2023-01-23T16:36:59.524Z,17.97
2023-01-23T16:39:29.930Z,20.53
2023-01-23T16:41:56.919Z,20.27
2023-01-23T16:44:24.128Z,18.30
2023-01-23T16:46:52.422Z,21.40
2023-01-23T16:49:19.541Z,22.80
2023-01-23T16:52:01.029Z,16.47
2023-01-23T16:54:27.747Z,16.73
2023-01-23T16:56:57.092Z,17.90
2023-01-23T16:59:26.657Z,18.23
2023-01-23T17:01:53.737Z,14.70
2023-01-23T17:04:21.739Z,17.30
2023-01-23T17:06:49.157Z,18.37
2023-01-23T17:09:17.203Z,19.27
2023-01-23T17:11:55.739Z,18.53
2023-01-23T17:14:30.274Z,15.50
2023-01-23T17:17:36.929Z,16.20
2023-01-23T17:20:05.435Z,19.00
2023-01-23T17:22:38.309Z,19.90
2023-01-23T17:25:12.878Z,17.73
2023-01-23T17:27:45.419Z,19.17
2023-01-23T17:30:22.509Z,20.97
2023-01-23T17:32:53.034Z,21.30
2023-01-23T17:35:24.290Z,24.97
2023-01-23T17:37:51.945Z,18.47
2023-01-23T17:40:19.494Z,18.10
2023-01-23T17:42:46.259Z,21.13
2023-01-23T17:45:14.813Z,18.37
2023-01-23T17:47:44.299Z,21.37
2023-01-23T17:50:25.984Z,22.13
2023-01-23T17:52:53.992Z,26.17
2023-01-23T17:55:28.387Z,20.93
2023-01-23T17:57:55.169Z,19.40
2023-01-23T18:00:22.236Z,18.70
2023-01-23T18:02:56.251Z,17.70
2023-01-23T18:05:23.261Z,17.33
2023-01-23T18:07:54.051Z,16.40
2023-01-23T18:10:22.153Z,18.17
2023-01-23T18:13:07.136Z,17.27
2023-01-23T18:15:55.579Z,17.53
2023-01-23T18:18:37.194Z,22.17
2023-01-23T18:21:05.644Z,16.03
2023-01-23T18:23:37.090Z,18.87
2023-01-23T18:26:06.956Z,17.23
2023-01-23T18:28:48.593Z,15.80
2023-01-23T18:31:35.593Z,17.13
2023-01-23T18:34:14.324Z,14.67
2023-01-23T18:37:01.305Z,14.77
2023-01-23T18:39:38.742Z,15.33
2023-01-23T18:42:16.779Z,15.10
2023-01-23T18:45:06.475Z,13.53
2023-01-23T18:47:33.222Z,15.70
2023-01-23T18:50:04.372Z,16.20
2023-01-23T18:53:06.523Z,15.27
2023-01-23T18:55:42.556Z,14.40
2023-01-23T18:58:18.725Z,15.10
2023-01-23T19:01:17.818Z,15.37
2023-01-23T19:03:46.514Z,16.43
2023-01-23T19:06:25.203Z,13.97
2023-01-23T19:08:54.215Z,16.67
2023-01-23T19:11:32.860Z,16.03
2023-01-23T19:14:32.741Z,16.83
2023-01-23T19:17:08.507Z,16.57
2023-01-23T19:19:47.469Z,16.87
2023-01-23T19:22:17.219Z,17.33
2023-01-23T19:24:43.986Z,17.67
2023-01-23T19:27:20.639Z,16.93
2023-01-23T19:29:47.464Z,14.87
2023-01-23T19:32:14.506Z,16.87
2023-01-23T19:34:42.885Z,15.73
2023-01-23T19:37:09.536Z,19.20
2023-01-23T19:39:36.091Z,16.67
2023-01-23T19:42:03.028Z,18.50
2023-01-23T19:44:30.240Z,16.13
2023-01-23T19:46:57.222Z,15.80
2023-01-23T19:49:25.054Z,15.30
2023-01-23T19:51:51.654Z,17.30
2023-01-23T19:54:18.705Z,16.03
2023-01-23T19:56:45.356Z,15.33
2023-01-23T19:59:11.855Z,14.23
2023-01-23T20:01:43.360Z,15.23
2023-01-23T20:04:15.946Z,14.93
2023-01-23T20:06:45.409Z,16.87
2023-01-23T20:09:14.589Z,17.57
2023-01-23T20:11:45.398Z,17.10
2023-01-23T20:14:12.455Z,18.20
2023-01-23T20:16:41.045Z,18.97
2023-01-23T20:19:07.816Z,16.47
2023-01-23T20:21:34.662Z,21.40
2023-01-23T20:24:01.294Z,19.60
2023-01-23T20:26:27.977Z,18.00
2023-01-23T20:28:54.598Z,18.00
2023-01-23T20:31:22.224Z,16.80
2023-01-23T20:33:49.367Z,17.80
2023-01-23T20:36:16.109Z,16.53
2023-01-23T20:38:42.876Z,20.10
2023-01-23T20:41:15.022Z,18.07
2023-01-23T20:43:45.646Z,18.40
2023-01-23T20:46:14.231Z,19.37
2023-01-23T20:48:43.905Z,16.77
2023-01-23T20:51:11.283Z,18.23
2023-01-23T20:53:39.865Z,19.33
2023-01-23T20:56:19.568Z,17.10
2023-01-23T20:59:27.256Z,19.90
2023-01-23T21:02:12.506Z,16.60
2023-01-23T21:04:40.507Z,18.73
2023-01-23T21:07:07.038Z,19.80
2023-01-23T21:09:33.738Z,17.10
2023-01-23T21:12:00.972Z,14.97
2023-01-23T21:14:27.700Z,14.07
2023-01-23T21:16:54.376Z,17.03
2023-01-23T21:19:21.393Z,17.27
2023-01-23T21:21:48.123Z,13.97
2023-01-23T21:24:14.943Z,16.23
2023-01-23T21:26:42.803Z,17.20
2023-01-23T21:29:10.056Z,16.60
2023-01-23T21:31:39.336Z,15.90
2023-01-23T21:34:09.417Z,15.77
2023-01-23T21:36:36.498Z,17.37
2023-01-23T21:39:04.832Z,15.27
2023-01-23T21:41:31.790Z,13.53
2023-01-23T21:43:58.410Z,18.73
2023-01-23T21:46:25.273Z,14.37
2023-01-23T21:48:52.357Z,12.13
2023-01-23T21:51:21.246Z,12.33
2023-01-23T21:53:49.715Z,12.83
2023-01-23T21:56:19.896Z,12.23
2023-01-23T21:58:47.232Z,13.83
2023-01-23T22:01:54.859Z,13.17
2023-01-23T22:04:22.599Z,11.40
2023-01-23T22:06:54.251Z,14.27
2023-01-23T22:09:24.627Z,12.60
2023-01-23T22:11:51.752Z,13.03
2023-01-23T22:14:19.232Z,13.90
2023-01-23T22:16:49.103Z,12.17
2023-01-23T22:19:24.896Z,13.87
2023-01-23T22:21:55.515Z,12.83
2023-01-23T22:24:22.301Z,13.70
2023-01-23T22:26:49.321Z,15.13
2023-01-23T22:29:15.973Z,13.77
2023-01-23T22:31:43.129Z,15.67
2023-01-23T22:34:10.098Z,14.87
2023-01-23T22:36:36.733Z,15.87
2023-01-23T22:39:03.624Z,13.87
2023-01-23T22:41:30.345Z,15.83
2023-01-23T22:43:59.384Z,15.10
2023-01-23T22:46:27.220Z,15.13
2023-01-23T22:48:53.933Z,16.50
2023-01-23T22:51:25.961Z,16.00
2023-01-23T22:53:57.379Z,16.93
2023-01-23T22:56:26.301Z,14.93
2023-01-23T22:58:54.492Z,15.67
2023-01-23T23:01:25.665Z,16.80
2023-01-23T23:03:52.961Z,15.00
2023-01-23T23:06:20.310Z,16.27
2023-01-23T23:08:48.072Z,16.03
2023-01-23T23:11:24.550Z,16.83
2023-01-23T23:13:51.623Z,16.67
2023-01-23T23:16:20.842Z,17.93
2023-01-23T23:18:49.741Z,17.93
2023-01-23T23:21:19.872Z,17.93
2023-01-23T23:23:47.080Z,15.20
2023-01-23T23:26:14.130Z,18.40
2023-01-23T23:28:41.100Z,16.67
2023-01-23T23:31:09.526Z,15.73
2023-01-23T23:33:36.158Z,16.13
2023-01-23T23:36:02.820Z,16.30
2023-01-23T23:38:29.324Z,15.27
2023-01-23T23:41:03.028Z,16.17
2023-01-23T23:43:29.772Z,16.00
2023-01-23T23:46:00.673Z,17.50
2023-01-23T23:48:28.499Z,15.63
2023-01-23T23:50:55.483Z,17.10
2023-01-23T23:53:22.635Z,16.03
2023-01-23T23:55:49.272Z,14.13
2023-01-23T23:58:15.914Z,15.87
